createdAt,value
2019-01-20T00:01:56.136Z,-0.80
2019-01-20T00:04:28.435Z,-0.70
2019-01-20T00:06:59.270Z,-0.80
2019-01-20T00:09:32.587Z,-0.80
2019-01-20T00:12:04.558Z,-0.80
2019-01-20T00:14:37.230Z,-0.80
2019-01-20T00:17:09.839Z,-0.80
2019-01-20T00:19:40.186Z,-0.80
2019-01-20T00:22:10.896Z,-0.80
2019-01-20T00:24:46.141Z,-0.80
2019-01-20T00:27:22.320Z,-0.80
2019-01-20T00:29:53.320Z,-0.90
2019-01-20T00:32:24.120Z,-0.90
2019-01-20T00:34:54.930Z,-0.90
2019-01-20T00:37:25.177Z,-0.90
2019-01-20T00:39:56.417Z,-1.00
2019-01-20T00:42:26.773Z,-0.90
2019-01-20T00:45:02.601Z,-0.90
2019-01-20T00:47:31.048Z,-1.00
2019-01-20T00:50:08.407Z,-1.00
2019-01-20T00:52:39.547Z,-1.00
2019-01-20T00:55:12.124Z,-1.10
2019-01-20T00:57:47.916Z,-1.10
2019-01-20T01:00:31.943Z,-1.10
2019-01-20T01:03:06.652Z,-1.10
2019-01-20T01:05:36.562Z,-1.10
2019-01-20T01:08:07.310Z,-1.20
2019-01-20T01:10:39.564Z,-1.20
2019-01-20T01:13:16.045Z,-1.20
2019-01-20T01:15:56.824Z,-1.20
2019-01-20T01:18:27.330Z,-1.20
2019-01-20T01:21:01.041Z,-1.30
2019-01-20T01:23:35.383Z,-1.30
2019-01-20T01:26:15.611Z,-1.30
2019-01-20T01:28:45.552Z,-1.20
2019-01-20T01:31:15.317Z,-1.20
2019-01-20T01:33:47.460Z,-1.20
2019-01-20T01:36:18.140Z,-1.20
2019-01-20T01:38:47.946Z,-1.30
2019-01-20T01:41:24.536Z,-1.30
2019-01-20T01:43:54.467Z,-1.30
2019-01-20T01:46:24.896Z,-1.30
2019-01-20T01:49:05.849Z,-1.20
2019-01-20T01:51:49.156Z,-1.20
2019-01-20T01:54:22.280Z,-1.30
2019-01-20T01:56:52.528Z,-1.30
2019-01-20T01:59:23.737Z,-1.30
2019-01-20T02:01:53.952Z,-1.30
2019-01-20T02:04:25.168Z,-1.30
2019-01-20T02:06:57.390Z,-1.30
2019-01-20T02:09:28.525Z,-1.30
2019-01-20T02:11:59.759Z,-1.30
2019-01-20T02:14:30.595Z,-1.30
2019-01-20T02:17:00.680Z,-1.40
2019-01-20T02:19:31.192Z,-1.40
2019-01-20T02:22:01.110Z,-1.50
2019-01-20T02:24:31.450Z,-1.50
2019-01-20T02:27:07.107Z,-1.50
2019-01-20T02:29:42.980Z,-1.50
2019-01-20T02:32:14.035Z,-1.50
2019-01-20T02:34:44.389Z,-1.60
2019-01-20T02:37:19.836Z,-1.60
2019-01-20T02:40:00.386Z,-1.60
2019-01-20T02:42:45.440Z,-1.60
2019-01-20T02:45:29.676Z,-1.60
2019-01-20T02:48:00.305Z,-1.60
2019-01-20T02:50:30.453Z,-1.70
2019-01-20T02:53:06.316Z,-1.70
2019-01-20T02:55:54.722Z,-1.70
2019-01-20T02:58:25.650Z,-1.70
2019-01-20T03:01:03.316Z,-1.80
2019-01-20T03:03:35.058Z,-1.80
2019-01-20T03:06:09.296Z,-1.80
2019-01-20T03:08:42.155Z,-1.80
2019-01-20T03:11:13.049Z,-1.80
2019-01-20T03:13:43.951Z,-1.80
2019-01-20T03:16:14.321Z,-1.80
2019-01-20T03:18:45.913Z,-1.80
2019-01-20T03:21:18.043Z,-1.80
2019-01-20T03:23:49.360Z,-1.90
2019-01-20T03:26:28.330Z,-1.90
2019-01-20T03:28:59.022Z,-1.80
2019-01-20T03:31:30.610Z,-1.90
2019-01-20T03:34:02.378Z,-1.80
2019-01-20T03:36:33.751Z,-1.90
2019-01-20T03:39:05.946Z,-1.90
2019-01-20T03:41:35.940Z,-2.00
2019-01-20T03:44:06.523Z,-2.00
2019-01-20T03:46:36.732Z,-2.00
2019-01-20T03:49:06.593Z,-1.90
2019-01-20T03:51:38.216Z,-1.90
2019-01-20T03:54:08.223Z,-2.00
2019-01-20T03:56:38.931Z,-1.90
2019-01-20T03:59:13.832Z,-2.00
2019-01-20T04:01:45.195Z,-2.00
2019-01-20T04:04:16.148Z,-2.00
2019-01-20T04:06:46.874Z,-2.10
2019-01-20T04:09:16.861Z,-2.10
2019-01-20T04:11:46.731Z,-2.10
2019-01-20T04:14:17.237Z,-2.10
2019-01-20T04:16:52.158Z,-2.10
2019-01-20T04:19:22.743Z,-2.10
2019-01-20T04:21:55.799Z,-2.10
2019-01-20T04:24:25.548Z,-2.10
2019-01-20T04:26:55.645Z,-2.10
2019-01-20T04:29:26.898Z,-2.10
2019-01-20T04:31:56.595Z,-2.10
2019-01-20T04:34:26.295Z,-2.10
2019-01-20T04:36:56.169Z,-2.10
2019-01-20T04:39:25.854Z,-2.20
2019-01-20T04:41:55.664Z,-2.20
2019-01-20T04:44:26.244Z,-2.20
2019-01-20T04:46:55.952Z,-2.20
2019-01-20T04:49:25.720Z,-2.20
2019-01-20T04:51:55.665Z,-2.10
2019-01-20T04:54:25.564Z,-2.10
2019-01-20T04:56:55.804Z,-2.10
2019-01-20T04:59:25.823Z,-2.20
2019-01-20T05:01:56.661Z,-2.10
2019-01-20T05:04:27.188Z,-2.20
2019-01-20T05:06:57.084Z,-2.20
2019-01-20T05:09:27.174Z,-2.20
2019-01-20T05:11:57.632Z,-2.20
2019-01-20T05:14:27.338Z,-2.20
2019-01-20T05:16:57.104Z,-2.10
2019-01-20T05:19:28.293Z,-2.20
2019-01-20T05:21:58.589Z,-2.20
2019-01-20T05:24:28.480Z,-2.20
2019-01-20T05:26:58.703Z,-2.20
2019-01-20T05:29:28.468Z,-2.20
2019-01-20T05:31:58.237Z,-2.30
2019-01-20T05:34:27.935Z,-2.30
2019-01-20T05:36:57.770Z,-2.30
2019-01-20T05:39:28.052Z,-2.30
2019-01-20T05:41:58.264Z,-2.30
2019-01-20T05:44:28.098Z,-2.30
2019-01-20T05:46:58.887Z,-2.30
2019-01-20T05:49:30.403Z,-2.30
2019-01-20T05:52:00.144Z,-2.30
2019-01-20T05:54:30.818Z,-2.30
2019-01-20T05:57:02.257Z,-2.30
2019-01-20T05:59:32.059Z,-2.30
2019-01-20T06:02:01.760Z,-2.30
2019-01-20T06:04:31.430Z,-2.30
2019-01-20T06:07:01.323Z,-2.30
2019-01-20T06:09:34.029Z,-2.30
2019-01-20T06:12:03.689Z,-2.40
2019-01-20T06:14:36.966Z,-2.40
2019-01-20T06:17:06.739Z,-2.40
2019-01-20T06:19:36.591Z,-2.40
2019-01-20T06:22:06.592Z,-2.40
2019-01-20T06:24:36.387Z,-2.40
2019-01-20T06:27:13.714Z,-2.40
2019-01-20T06:29:43.615Z,-2.40
2019-01-20T06:32:13.663Z,-2.40
2019-01-20T06:34:43.388Z,-2.50
2019-01-20T06:37:13.227Z,-2.50
2019-01-20T06:39:43.878Z,-2.50
2019-01-20T06:42:14.261Z,-2.50
2019-01-20T06:44:44.248Z,-2.50
2019-01-20T06:47:13.959Z,-2.50
2019-01-20T06:49:43.652Z,-2.50
2019-01-20T06:52:13.831Z,-2.60
2019-01-20T06:54:43.852Z,-2.60
2019-01-20T06:57:13.706Z,-2.50
2019-01-20T06:59:43.838Z,-2.50
2019-01-20T07:02:14.028Z,-2.50
2019-01-20T07:04:43.931Z,-2.50
2019-01-20T07:07:13.987Z,-2.50
2019-01-20T07:09:43.754Z,-2.50
2019-01-20T07:12:13.363Z,-2.50
2019-01-20T07:14:43.467Z,-2.60
2019-01-20T07:17:16.187Z,-2.60
2019-01-20T07:19:46.137Z,-2.60
2019-01-20T07:22:16.179Z,-2.60
2019-01-20T07:24:46.120Z,-2.70
2019-01-20T07:27:16.034Z,-2.60
2019-01-20T07:29:45.918Z,-2.60
2019-01-20T07:32:15.935Z,-2.60
2019-01-20T07:34:45.872Z,-2.60
2019-01-20T07:37:15.998Z,-2.60
2019-01-20T07:39:45.777Z,-2.60
2019-01-20T07:42:19.298Z,-2.60
2019-01-20T07:44:49.271Z,-2.60
2019-01-20T07:47:19.137Z,-2.50
2019-01-20T07:49:52.190Z,-2.60
2019-01-20T07:52:22.129Z,-2.60
2019-01-20T07:54:52.335Z,-2.60
2019-01-20T07:57:21.938Z,-2.50
2019-01-20T08:00:02.192Z,-2.50
2019-01-20T08:02:29.760Z,-2.50
2019-01-20T08:04:59.398Z,-2.40
2019-01-20T08:07:29.457Z,-2.40
2019-01-20T08:09:59.272Z,-2.40
2019-01-20T08:12:29.295Z,-2.40
2019-01-20T08:14:59.023Z,-2.40
2019-01-20T08:17:28.703Z,-2.30
2019-01-20T08:19:58.835Z,-2.30
2019-01-20T08:22:28.975Z,-2.30
2019-01-20T08:24:58.949Z,-2.30
2019-01-20T08:27:31.438Z,-2.20
2019-01-20T08:30:05.131Z,-2.20
2019-01-20T08:32:34.843Z,-2.20
2019-01-20T08:35:05.085Z,-2.20
2019-01-20T08:37:37.167Z,-2.10
2019-01-20T08:40:10.051Z,-2.10
2019-01-20T08:42:40.270Z,-2.10
2019-01-20T08:45:37.659Z,-2.00
2019-01-20T08:48:16.094Z,-2.00
2019-01-20T08:50:45.963Z,-2.00
2019-01-20T08:53:16.132Z,-2.00
2019-01-20T08:55:46.694Z,-1.90
2019-01-20T08:58:22.327Z,-1.90
2019-01-20T09:01:02.073Z,-1.90
2019-01-20T09:03:37.374Z,-1.80
2019-01-20T09:06:07.185Z,-1.80
2019-01-20T09:08:36.754Z,-1.80
2019-01-20T09:11:06.580Z,-1.80
2019-01-20T09:13:39.816Z,-1.70
2019-01-20T09:16:08.656Z,-1.80
2019-01-20T09:18:38.386Z,-1.80
2019-01-20T09:21:08.339Z,-1.70
2019-01-20T09:23:43.646Z,-1.70
2019-01-20T09:26:18.584Z,-1.70
2019-01-20T09:28:51.603Z,-1.60
2019-01-20T09:31:22.416Z,-1.40
2019-01-20T09:33:52.580Z,-1.40
2019-01-20T09:36:23.396Z,-1.30
2019-01-20T09:38:53.209Z,-1.30
2019-01-20T09:41:23.631Z,-1.30
2019-01-20T09:43:55.466Z,-1.30
2019-01-20T09:46:26.198Z,-1.30
2019-01-20T09:49:00.323Z,-1.30
2019-01-20T09:51:30.270Z,-1.30
2019-01-20T09:54:01.008Z,-1.30
2019-01-20T09:56:31.294Z,-1.30
2019-01-20T09:59:01.311Z,-1.30
2019-01-20T10:01:33.082Z,-1.20
2019-01-20T10:04:04.917Z,-1.10
2019-01-20T10:06:36.540Z,-1.00
2019-01-20T10:09:17.818Z,-1.00
2019-01-20T10:12:02.081Z,-1.00
2019-01-20T10:14:34.898Z,-1.00
2019-01-20T10:17:13.135Z,-0.90
2019-01-20T10:19:45.102Z,-0.80
2019-01-20T10:22:17.704Z,-0.80
2019-01-20T10:24:49.452Z,-0.70
2019-01-20T10:27:21.249Z,-0.70
2019-01-20T10:29:59.094Z,-0.60
2019-01-20T10:32:31.199Z,-0.60
2019-01-20T10:35:03.759Z,-0.40
2019-01-20T10:37:34.239Z,-0.30
2019-01-20T10:40:12.998Z,-0.30
2019-01-20T10:42:43.094Z,-0.30
2019-01-20T10:45:25.029Z,-0.30
2019-01-20T10:48:06.587Z,-0.20
2019-01-20T10:50:42.250Z,-0.20
2019-01-20T10:53:15.031Z,-0.10
2019-01-20T10:55:45.532Z,-0.10
2019-01-20T10:58:23.385Z,-0.10
2019-01-20T11:00:59.319Z,0.00
2019-01-20T11:03:42.841Z,0.10
2019-01-20T11:06:19.410Z,0.20
2019-01-20T11:09:06.176Z,0.20
2019-01-20T11:11:49.534Z,0.20
2019-01-20T11:14:22.304Z,0.30
2019-01-20T11:16:57.465Z,0.40
2019-01-20T11:19:29.219Z,0.30
2019-01-20T11:22:00.843Z,0.40
2019-01-20T11:24:33.667Z,0.40
2019-01-20T11:27:04.121Z,0.40
2019-01-20T11:54:47.700Z,1.00
2019-01-20T11:57:35.178Z,1.00
2019-01-20T12:01:25.161Z,1.00
2019-01-20T12:11:30.781Z,1.10
2019-01-20T12:18:28.785Z,1.30
2019-01-20T12:27:17.188Z,1.50
2019-01-20T12:49:31.684Z,1.80
2019-01-20T14:59:13.325Z,3.60
2019-01-20T15:08:24.512Z,3.20
2019-01-20T15:14:49.652Z,3.50
2019-01-20T15:21:04.398Z,3.20
2019-01-20T15:27:18.146Z,3.00
2019-01-20T15:30:28.789Z,2.90
2019-01-20T15:37:06.447Z,2.90
2019-01-20T15:39:58.040Z,2.80
2019-01-20T15:43:18.472Z,2.80
2019-01-20T15:46:14.488Z,2.80
2019-01-20T15:48:59.916Z,2.70
2019-01-20T15:51:42.592Z,2.60
2019-01-20T15:54:43.615Z,2.60
2019-01-20T15:57:42.731Z,2.60
2019-01-20T16:07:29.785Z,2.80
2019-01-20T17:36:46.697Z,3.10
2019-01-20T19:44:20.254Z,1.90
2019-01-20T19:47:33.454Z,1.80
2019-01-20T19:50:32.510Z,2.00
2019-01-20T19:56:41.475Z,2.00
2019-01-20T20:16:53.566Z,1.40
2019-01-20T20:19:29.758Z,1.30
